Arverne, NY

1:34 PM EDT on July 29, 2016 (GMT -0400)
Rockaway - WeatherMan Ken | | Change Station

Elev 7 ft 40.58 °N, 73.84 °W | Updated 8 minutes ago

Mostly Cloudy
Mostly Cloudy
77.4 °F
Feels Like 79 °F
N
9.9
Wind Variable Wind from NE

Today
High -- | Low -- °F
--% Chance of Precip.
Yesterday
High -- | Low -- °F
Precip. -- in
Pressure 29.85 in
Visibility 10.0 miles
Clouds Scattered Clouds 1300 ft
Mostly Cloudy 4700 ft
Mostly Cloudy 11000 ft
Heat Index 79 °F
Dew Point 71 °F
Humidity 81%
Rainfall 0.57 in
Snow Depth Not available.
5:49 AM 8:12 PM
Waning Crescent, 20% visible
METAR KJFK 291651Z 05015KT 10SM SCT013 BKN047 BKN110 25/20 A2985 RMK AO2 SLP107 SCT V BKN T02500200
Pressure 29.85 in
Visibility 10.0 miles
Clouds Scattered Clouds 1300 ft
Mostly Cloudy 4700 ft
Mostly Cloudy 11000 ft
Heat Index 79 °F
Dew Point 71 °F
Humidity 81%
Rainfall 0.57 in
Snow Depth Not available.
5:49 AM 8:12 PM
Waning Crescent, 20% visible
METAR KJFK 291651Z 05015KT 10SM SCT013 BKN047 BKN110 25/20 A2985 RMK AO2 SLP107 SCT V BKN T02500200

10-Day Weather Forecast

Almanac

Astronomy

Jul. 29, 2016 Rise Set
Actual Time
Civil Twilight
Nautical Twilight
Astronomical Twilight
Moon
Length of Visible Light
Length of Day
Tomorrow will be .
, % of the Moon is Illuminated

Today's Extremes

State Highs State Lows

Community

WunderPhotos

Upload Photos

1,928,382 photos uploaded!

WunderBlog® & News

Nearby

Air Quality

  Air Quality AQ Index Pollutant
Not available.

Snow Depth

Station Depth Elevation

Earthquake Activity

City Distance Mag. Time & Date
Minimum magnitude displayed is 2.5.

Coastal Water Temperatures

Place Temperature

Stations

Nearby Weather Stations

Station Location Temp. Windchill Dew Point Humidity Wind Precip. Elev Updated Type
                   

Watches & Warnings

There are currently no watches in effect.